Liberal Mid-America Regional Airport Liberal US
ICAO: KLBL
IATA: LBL
Category: Medium
Scheduled Services: Yes

Elevation: 2885 ft
TransAlt. 18000 ft.

Airport Communications:
AWOS 3:118.375
KANSAS CITY CNTR:134
WICHITA RDO:122.4
CTAF/UNICOM:122.8

KLBL Zoom In..

Runways:

(A) RW 04 length 5721 ft width 150 ft
---- / hdg 35

(B) RW 17 length 7105 ft width 100 ft
---- / hdg 170

(C) RW 22 length 5721 ft width 150 ft
---- / hdg 215

(D) RW 35 length 7105 ft width 100 ft
ILS 111.30 / hdg 350

Location; KLBL
Day. 30 / Time. 21.56 Zulu
* Altimeter: 30.03
* Temperature: 34° c. 93.2°f.
* Wind from: 180° Speed 24 kn with Gusts up to 28 kn.
Dewpoint: 09° c.
Visibility: 10 Statute Miles.
Clouds: Clear (automated report).

KLBL 302156Z AUTO 18024G28KT 10SM CLR 34/09 A3003 RMK AO2 PK WND 18033/2059 SLP137 T03390094


Wind From 180°
Speed 24 kn.

 
 
jpsmedia worldairports.se 2020   terms of use